createdAt,value
2017-10-27T00:00:47.384Z,0
2017-10-27T00:01:56.046Z,0
2017-10-27T00:03:05.009Z,0
2017-10-27T00:04:14.671Z,0
2017-10-27T00:05:24.325Z,0
2017-10-27T00:06:33.689Z,0
2017-10-27T00:07:42.330Z,0
2017-10-27T00:08:51.339Z,0
2017-10-27T00:10:01.357Z,0
2017-10-27T00:11:10.026Z,0
2017-10-27T00:12:18.679Z,0
2017-10-27T00:13:27.346Z,0
2017-10-27T00:14:36.660Z,0
2017-10-27T00:15:45.653Z,0
2017-10-27T00:16:54.644Z,0
2017-10-27T00:18:03.938Z,0
2017-10-27T00:19:13.298Z,0
2017-10-27T00:20:22.292Z,0
2017-10-27T00:21:31.287Z,0
2017-10-27T00:22:40.286Z,0
2017-10-27T00:23:49.601Z,0
2017-10-27T00:24:58.262Z,0
2017-10-27T00:26:07.580Z,0
2017-10-27T00:27:16.575Z,0
2017-10-27T00:28:25.624Z,0
2017-10-27T00:29:34.275Z,0
2017-10-27T00:30:43.582Z,0
2017-10-27T00:31:52.889Z,0
2017-10-27T00:33:01.878Z,0
2017-10-27T00:34:10.646Z,0
2017-10-27T00:35:19.294Z,0
2017-10-27T00:36:27.953Z,0
2017-10-27T00:37:36.968Z,0
2017-10-27T00:38:46.273Z,0
2017-10-27T00:39:55.262Z,0
2017-10-27T00:41:04.568Z,0
2017-10-27T00:42:13.900Z,0
2017-10-27T00:43:23.559Z,0
2017-10-27T00:44:32.529Z,0
2017-10-27T00:45:41.509Z,0
2017-10-27T00:46:50.499Z,0
2017-10-27T00:47:59.808Z,0
2017-10-27T00:49:09.125Z,0
2017-10-27T00:50:18.866Z,0
2017-10-27T00:51:28.210Z,0
2017-10-27T00:52:37.198Z,0
2017-10-27T00:53:46.190Z,0
2017-10-27T00:54:55.495Z,0
2017-10-27T00:56:04.834Z,0
2017-10-27T00:57:14.162Z,0
2017-10-27T00:58:24.028Z,0
2017-10-27T00:59:33.072Z,0
2017-10-27T01:00:43.066Z,0
2017-10-27T01:01:51.739Z,0
2017-10-27T01:03:00.389Z,0
2017-10-27T01:04:09.383Z,0
2017-10-27T01:05:18.706Z,0
2017-10-27T01:06:27.377Z,0
2017-10-27T01:07:36.439Z,0
2017-10-27T01:08:45.755Z,0
2017-10-27T01:09:54.416Z,0
2017-10-27T01:11:03.741Z,0
2017-10-27T01:12:13.053Z,0
2017-10-27T01:13:22.735Z,0
2017-10-27T01:14:31.410Z,0
2017-10-27T01:15:40.406Z,0
2017-10-27T01:16:50.073Z,0
2017-10-27T01:17:59.386Z,0
2017-10-27T01:19:08.376Z,0
2017-10-27T01:20:17.016Z,0
2017-10-27T01:21:26.004Z,0
2017-10-27T01:22:35.309Z,0
2017-10-27T01:23:44.292Z,0
2017-10-27T01:24:53.644Z,0
2017-10-27T01:26:02.633Z,0
2017-10-27T01:27:11.963Z,0
2017-10-27T01:28:21.263Z,0
2017-10-27T01:29:30.259Z,0
2017-10-27T01:30:39.915Z,0
2017-10-27T01:31:49.229Z,0
2017-10-27T01:32:58.211Z,0
2017-10-27T01:34:07.182Z,0
2017-10-27T01:35:16.492Z,0
2017-10-27T01:36:25.146Z,0
2017-10-27T01:37:33.813Z,0
2017-10-27T01:38:43.121Z,0
2017-10-27T01:39:52.100Z,0
2017-10-27T01:41:01.411Z,0
2017-10-27T01:42:10.395Z,0
2017-10-27T01:43:19.063Z,0
2017-10-27T01:44:27.729Z,0
2017-10-27T01:45:37.067Z,0
2017-10-27T01:46:45.729Z,0
2017-10-27T01:47:54.721Z,0
2017-10-27T01:49:03.689Z,0
2017-10-27T01:50:12.681Z,0
2017-10-27T01:51:21.389Z,0
2017-10-27T01:52:30.377Z,0
2017-10-27T01:53:40.023Z,0
2017-10-27T01:54:48.681Z,0
2017-10-27T01:55:57.999Z,0
2017-10-27T01:57:06.974Z,0
2017-10-27T01:58:16.281Z,0
2017-10-27T01:59:24.956Z,0
2017-10-27T02:00:34.272Z,0
2017-10-27T02:01:42.934Z,0
2017-10-27T02:02:52.565Z,0
2017-10-27T02:04:01.555Z,0
2017-10-27T02:05:10.548Z,0
2017-10-27T02:06:19.519Z,0
2017-10-27T02:07:28.848Z,0
2017-10-27T02:08:38.482Z,0
2017-10-27T02:09:47.453Z,0
2017-10-27T02:10:56.788Z,0
2017-10-27T02:12:06.126Z,0
2017-10-27T02:13:15.116Z,0
2017-10-27T02:14:24.114Z,0
2017-10-27T02:15:32.782Z,0
2017-10-27T02:16:42.099Z,0
2017-10-27T02:17:50.751Z,0
2017-10-27T02:19:00.078Z,0
2017-10-27T02:20:09.739Z,0
2017-10-27T02:21:19.053Z,0
2017-10-27T02:22:28.034Z,0
2017-10-27T02:23:37.339Z,0
2017-10-27T02:24:46.322Z,0
2017-10-27T02:25:54.982Z,0
2017-10-27T02:27:04.295Z,0
2017-10-27T02:28:13.278Z,0
2017-10-27T02:29:22.271Z,0
2017-10-27T02:30:31.588Z,0
2017-10-27T02:31:40.591Z,0
2017-10-27T02:32:50.242Z,0
2017-10-27T02:33:59.239Z,0
2017-10-27T02:35:07.908Z,0
2017-10-27T02:36:17.215Z,0
2017-10-27T02:37:26.547Z,0
2017-10-27T02:38:35.853Z,0
2017-10-27T02:39:45.176Z,0
2017-10-27T02:40:54.162Z,0
2017-10-27T02:42:03.476Z,0
2017-10-27T02:43:12.458Z,0
2017-10-27T02:44:21.445Z,0
2017-10-27T02:45:30.445Z,0
2017-10-27T02:46:39.462Z,0
2017-10-27T02:47:48.446Z,0
2017-10-27T02:48:57.114Z,0
2017-10-27T02:50:05.776Z,0
2017-10-27T02:51:15.097Z,0
2017-10-27T02:52:24.082Z,0
2017-10-27T02:53:33.075Z,0
2017-10-27T02:54:41.728Z,0
2017-10-27T02:55:50.710Z,0
2017-10-27T02:56:59.359Z,0
2017-10-27T02:58:08.677Z,0
2017-10-27T02:59:17.679Z,0
2017-10-27T03:00:26.993Z,0
2017-10-27T03:01:36.312Z,0
2017-10-27T03:02:45.626Z,0
2017-10-27T03:03:54.932Z,0
2017-10-27T03:05:03.588Z,0
2017-10-27T03:06:12.559Z,0
2017-10-27T03:07:21.862Z,0
2017-10-27T03:08:30.854Z,0
2017-10-27T03:09:40.154Z,0
2017-10-27T03:10:48.812Z,0
2017-10-27T03:11:57.828Z,0
2017-10-27T03:13:07.139Z,0
2017-10-27T03:14:17.102Z,0
2017-10-27T03:15:26.087Z,0
2017-10-27T03:16:35.070Z,0
2017-10-27T03:17:44.048Z,0
2017-10-27T03:18:53.368Z,0
2017-10-27T03:20:02.022Z,0
2017-10-27T03:21:11.334Z,0
2017-10-27T03:22:20.632Z,0
2017-10-27T03:23:30.252Z,0
2017-10-27T03:24:39.234Z,0
2017-10-27T03:25:48.210Z,0
2017-10-27T03:26:56.848Z,0
2017-10-27T03:28:05.829Z,0
2017-10-27T03:29:14.802Z,0
2017-10-27T03:30:24.438Z,0
2017-10-27T03:31:33.418Z,0
2017-10-27T03:32:42.740Z,0
2017-10-27T03:33:52.025Z,0
2017-10-27T03:35:01.351Z,0
2017-10-27T03:36:10.339Z,0
2017-10-27T03:37:19.964Z,0
2017-10-27T03:38:28.969Z,0
2017-10-27T03:39:38.278Z,0
2017-10-27T03:40:47.268Z,0
2017-10-27T03:41:56.640Z,0
2017-10-27T03:43:05.637Z,0
2017-10-27T03:44:14.309Z,0
2017-10-27T03:45:23.287Z,0
2017-10-27T03:46:32.910Z,0
2017-10-27T03:47:41.567Z,0
2017-10-27T03:48:50.901Z,0
2017-10-27T03:50:00.223Z,0
2017-10-27T03:51:08.875Z,0
2017-10-27T03:52:17.847Z,0
2017-10-27T03:53:27.164Z,0
2017-10-27T03:54:36.147Z,0
2017-10-27T03:55:44.802Z,0
2017-10-27T03:56:54.126Z,0
2017-10-27T03:58:03.492Z,0
2017-10-27T03:59:12.494Z,0
2017-10-27T04:00:21.476Z,0
2017-10-27T04:01:30.141Z,0
2017-10-27T04:02:39.669Z,0
2017-10-27T04:03:49.319Z,0
2017-10-27T04:04:58.630Z,0
2017-10-27T04:06:07.615Z,0
2017-10-27T04:07:16.323Z,0
2017-10-27T04:08:25.973Z,0
2017-10-27T04:09:35.303Z,0
2017-10-27T04:10:43.962Z,0
2017-10-27T04:11:52.627Z,0
2017-10-27T04:13:01.928Z,0
2017-10-27T04:14:10.915Z,0
2017-10-27T04:15:19.924Z,0
2017-10-27T04:16:29.575Z,0
2017-10-27T04:17:39.570Z,0
2017-10-27T04:18:48.245Z,0
2017-10-27T04:19:57.228Z,0
2017-10-27T04:21:06.548Z,0
2017-10-27T04:22:15.212Z,0
2017-10-27T04:23:23.872Z,0
2017-10-27T04:24:32.870Z,0
2017-10-27T04:25:41.523Z,0
2017-10-27T04:26:50.492Z,0
2017-10-27T04:27:59.162Z,0
2017-10-27T04:29:08.161Z,0
2017-10-27T04:30:17.230Z,0
2017-10-27T04:31:26.218Z,0
2017-10-27T04:32:35.203Z,0
2017-10-27T04:33:43.856Z,0
2017-10-27T04:34:53.194Z,0
2017-10-27T04:36:02.188Z,0
2017-10-27T04:37:11.168Z,0
2017-10-27T04:38:20.485Z,0
2017-10-27T04:39:29.155Z,0
2017-10-27T04:40:37.814Z,0
2017-10-27T04:41:46.470Z,0
2017-10-27T04:42:55.142Z,0
2017-10-27T04:44:04.451Z,0
2017-10-27T04:45:13.759Z,0
2017-10-27T04:46:22.419Z,0
2017-10-27T04:47:31.068Z,0
2017-10-27T04:48:40.041Z,0
2017-10-27T04:49:49.359Z,0
2017-10-27T04:50:58.342Z,0
2017-10-27T04:52:07.339Z,0
2017-10-27T04:53:16.969Z,0
2017-10-27T04:54:26.285Z,0
2017-10-27T04:55:35.264Z,0
2017-10-27T04:56:44.244Z,0
2017-10-27T04:57:52.894Z,0
2017-10-27T04:59:01.870Z,0
2017-10-27T05:00:11.505Z,0
2017-10-27T05:01:20.478Z,0
2017-10-27T05:02:29.455Z,0
2017-10-27T05:03:38.420Z,0
2017-10-27T05:04:47.396Z,0
2017-10-27T05:05:57.370Z,0
2017-10-27T05:07:06.377Z,0
2017-10-27T05:08:15.657Z,0
2017-10-27T05:09:24.637Z,0
2017-10-27T05:10:33.611Z,0
2017-10-27T05:11:42.604Z,0
2017-10-27T05:12:51.254Z,0
2017-10-27T05:14:00.240Z,4
2017-10-27T05:15:09.218Z,4
2017-10-27T05:16:18.523Z,8
2017-10-27T05:17:27.181Z,4
2017-10-27T05:18:36.152Z,8
2017-10-27T05:19:45.129Z,8
2017-10-27T05:20:54.771Z,8
2017-10-27T05:22:03.756Z,8
2017-10-27T05:23:12.750Z,8
2017-10-27T05:24:22.059Z,8
2017-10-27T05:25:31.037Z,8
2017-10-27T05:26:39.681Z,8
2017-10-27T05:27:48.338Z,8
2017-10-27T05:28:57.338Z,8
2017-10-27T05:30:07.063Z,8
2017-10-27T05:31:15.733Z,8
2017-10-27T05:32:25.034Z,8
2017-10-27T05:33:34.340Z,8
2017-10-27T05:34:43.672Z,8
2017-10-27T05:35:52.666Z,8
2017-10-27T05:37:01.988Z,8
2017-10-27T05:38:11.319Z,8
2017-10-27T05:39:20.633Z,8
2017-10-27T05:40:29.604Z,8
2017-10-27T05:41:38.922Z,4
2017-10-27T05:42:47.960Z,8
2017-10-27T05:43:56.618Z,8
2017-10-27T05:45:05.647Z,8
2017-10-27T05:46:14.621Z,8
2017-10-27T05:47:23.614Z,8
2017-10-27T05:48:32.585Z,8
2017-10-27T05:49:41.881Z,8
2017-10-27T05:50:50.856Z,4
2017-10-27T05:52:00.209Z,4
2017-10-27T05:53:09.185Z,4
2017-10-27T05:54:18.506Z,4
2017-10-27T05:55:27.187Z,0
2017-10-27T05:56:36.175Z,0
2017-10-27T05:57:45.551Z,4
2017-10-27T05:58:54.204Z,4
2017-10-27T06:00:03.197Z,8
2017-10-27T06:01:11.842Z,8
2017-10-27T06:02:20.839Z,8
2017-10-27T06:03:29.818Z,8
2017-10-27T06:04:38.799Z,8
2017-10-27T06:05:48.109Z,8
2017-10-27T06:06:56.750Z,12
2017-10-27T06:08:05.777Z,12
2017-10-27T06:09:14.740Z,16
2017-10-27T06:10:24.041Z,16
2017-10-27T06:11:33.749Z,24
2017-10-27T06:12:42.727Z,24
2017-10-27T06:13:51.700Z,32
2017-10-27T06:15:00.702Z,36
2017-10-27T06:16:09.994Z,40
2017-10-27T06:17:19.288Z,44
2017-10-27T06:18:27.934Z,48
2017-10-27T06:19:36.583Z,56
2017-10-27T06:20:45.897Z,56
2017-10-27T06:21:55.227Z,56
2017-10-27T06:23:04.526Z,68
2017-10-27T06:24:13.856Z,68
2017-10-27T06:25:23.164Z,76
2017-10-27T06:26:32.136Z,80
2017-10-27T06:27:41.465Z,80
2017-10-27T06:28:51.099Z,88
2017-10-27T06:30:00.403Z,104
2017-10-27T06:31:09.410Z,112
2017-10-27T06:32:18.085Z,124
2017-10-27T06:33:27.070Z,124
2017-10-27T06:34:36.082Z,132
2017-10-27T06:35:45.078Z,140
2017-10-27T06:36:53.738Z,160
2017-10-27T06:38:03.085Z,168
2017-10-27T06:39:11.758Z,176
2017-10-27T06:40:21.095Z,180
2017-10-27T06:41:30.417Z,148
2017-10-27T06:42:39.750Z,172
2017-10-27T06:43:48.757Z,208
2017-10-27T06:44:57.778Z,196
2017-10-27T06:46:06.757Z,224
2017-10-27T06:47:15.777Z,188
2017-10-27T06:48:25.140Z,208
2017-10-27T06:49:34.782Z,244
2017-10-27T06:50:44.101Z,224
2017-10-27T06:51:52.772Z,240
2017-10-27T06:53:02.095Z,252
2017-10-27T06:54:11.091Z,248
2017-10-27T06:55:20.087Z,224
2017-10-27T06:56:29.152Z,244
2017-10-27T06:57:37.811Z,236
2017-10-27T06:58:46.478Z,316
2017-10-27T06:59:55.807Z,320
2017-10-27T07:01:05.463Z,316
2017-10-27T07:02:14.793Z,388
2017-10-27T07:03:23.795Z,408
2017-10-27T07:04:32.801Z,368
2017-10-27T07:05:41.830Z,368
2017-10-27T07:06:50.562Z,432
2017-10-27T07:07:59.262Z,500
2017-10-27T07:09:08.607Z,552
2017-10-27T07:10:17.594Z,576
2017-10-27T07:11:26.574Z,620
2017-10-27T07:12:35.640Z,560
2017-10-27T07:13:44.307Z,528
2017-10-27T07:14:53.629Z,512
2017-10-27T07:16:02.621Z,392
2017-10-27T07:17:11.609Z,304
2017-10-27T07:18:20.272Z,284
2017-10-27T07:19:28.957Z,276
2017-10-27T07:20:38.009Z,232
2017-10-27T07:21:47.669Z,188
2017-10-27T07:22:56.649Z,184
2017-10-27T07:24:06.036Z,228
2017-10-27T07:25:15.023Z,328
2017-10-27T07:26:24.333Z,476
2017-10-27T07:27:33.635Z,544
2017-10-27T07:28:43.278Z,436
2017-10-27T07:29:52.944Z,448
2017-10-27T07:31:02.641Z,528
2017-10-27T07:32:11.399Z,572
2017-10-27T07:33:20.479Z,568
2017-10-27T07:34:29.478Z,548
2017-10-27T07:35:38.164Z,472
2017-10-27T07:36:47.637Z,384
2017-10-27T07:37:56.843Z,404
2017-10-27T07:39:06.362Z,444
2017-10-27T07:40:16.216Z,476
2017-10-27T07:41:25.631Z,472
2017-10-27T07:42:34.627Z,432
2017-10-27T07:43:44.021Z,424
2017-10-27T07:44:52.678Z,516
2017-10-27T07:46:02.024Z,576
2017-10-27T07:47:11.043Z,580
2017-10-27T07:48:19.719Z,568
2017-10-27T07:49:29.080Z,628
2017-10-27T07:50:38.107Z,780
2017-10-27T07:51:47.495Z,772
2017-10-27T07:52:57.530Z,692
2017-10-27T07:54:06.205Z,580
2017-10-27T07:55:15.279Z,616
2017-10-27T07:56:24.959Z,816
2017-10-27T07:57:33.968Z,1036
2017-10-27T07:58:42.675Z,1164
2017-10-27T07:59:52.010Z,1080
2017-10-27T08:01:01.042Z,1256
2017-10-27T08:02:10.718Z,1140
2017-10-27T08:03:20.528Z,1068
2017-10-27T08:04:29.899Z,948
2017-10-27T08:05:39.339Z,1008
2017-10-27T08:06:47.999Z,780
2017-10-27T08:07:57.422Z,704
2017-10-27T08:09:06.274Z,664
2017-10-27T08:10:15.426Z,552
2017-10-27T08:11:25.400Z,508
2017-10-27T08:12:35.421Z,704
2017-10-27T08:13:45.901Z,876
2017-10-27T08:14:55.006Z,796
2017-10-27T08:16:04.690Z,752
2017-10-27T08:17:14.016Z,932
2017-10-27T08:18:23.687Z,924
2017-10-27T08:19:32.706Z,660
2017-10-27T08:20:41.738Z,696
2017-10-27T08:21:51.146Z,816
2017-10-27T08:23:00.462Z,748
2017-10-27T08:24:09.527Z,792
2017-10-27T08:25:18.546Z,748
2017-10-27T08:26:27.562Z,772
2017-10-27T08:27:36.931Z,936
2017-10-27T08:28:45.952Z,808
2017-10-27T08:29:55.270Z,784
2017-10-27T08:31:03.975Z,876
2017-10-27T08:32:13.321Z,1020
2017-10-27T08:33:22.057Z,908
2017-10-27T08:34:31.728Z,1008
2017-10-27T08:35:40.730Z,776
2017-10-27T08:36:50.130Z,856
2017-10-27T08:37:59.197Z,820
2017-10-27T08:39:08.234Z,784
2017-10-27T08:40:17.242Z,824
2017-10-27T08:41:26.264Z,1004
2017-10-27T08:42:34.936Z,1028
2017-10-27T08:43:44.256Z,1436
2017-10-27T08:44:53.591Z,1452
2017-10-27T08:46:02.925Z,1620
2017-10-27T08:47:11.585Z,1304
2017-10-27T08:48:20.602Z,948
2017-10-27T08:49:29.622Z,1156
2017-10-27T08:50:38.768Z,1756
2017-10-27T08:51:47.899Z,1672
2017-10-27T08:52:56.934Z,1220
2017-10-27T08:54:06.310Z,1300
2017-10-27T08:55:15.650Z,776
2017-10-27T08:56:24.991Z,820
2017-10-27T08:57:33.679Z,1020
2017-10-27T08:58:42.369Z,1632
2017-10-27T08:59:51.370Z,1792
2017-10-27T09:01:00.754Z,1104
2017-10-27T09:02:10.078Z,1132
2017-10-27T09:03:19.096Z,1448
2017-10-27T09:04:28.098Z,1660
2017-10-27T09:05:36.789Z,1276
2017-10-27T09:06:45.480Z,1108
2017-10-27T09:07:54.498Z,1380
2017-10-27T09:09:03.472Z,1284
2017-10-27T09:10:12.471Z,1824
2017-10-27T09:11:21.454Z,1112
2017-10-27T09:12:30.434Z,980
2017-10-27T09:13:39.429Z,1024
2017-10-27T09:14:49.094Z,1524
2017-10-27T09:15:58.408Z,1336
2017-10-27T09:17:07.399Z,1060
2017-10-27T09:18:16.078Z,1100
2017-10-27T09:19:25.410Z,1148
2017-10-27T09:20:34.891Z,1700
2017-10-27T09:21:44.556Z,1816
2017-10-27T09:22:53.244Z,1200
2017-10-27T09:24:02.569Z,984
2017-10-27T09:25:11.261Z,996
2017-10-27T09:26:20.586Z,1044
2017-10-27T09:27:29.607Z,1508
2017-10-27T09:28:38.595Z,1472
2017-10-27T09:29:47.923Z,1932
2017-10-27T09:30:56.941Z,1480
2017-10-27T09:32:05.929Z,1444
2017-10-27T09:33:15.344Z,2000
2017-10-27T09:34:24.365Z,1392
2017-10-27T09:35:33.108Z,1004
2017-10-27T09:36:42.110Z,1216
2017-10-27T09:37:51.788Z,1536
2017-10-27T09:39:00.819Z,2224
2017-10-27T09:40:10.219Z,1916
2017-10-27T09:41:19.645Z,1304
2017-10-27T09:42:28.815Z,820
2017-10-27T09:43:37.822Z,1040
2017-10-27T09:44:46.816Z,988
2017-10-27T09:45:55.815Z,956
2017-10-27T09:47:05.174Z,1144
2017-10-27T09:48:14.180Z,1376
2017-10-27T09:49:23.864Z,1312
2017-10-27T09:50:33.519Z,1224
2017-10-27T09:51:42.852Z,1228
2017-10-27T09:52:51.525Z,796
2017-10-27T09:54:01.216Z,888
2017-10-27T09:55:10.235Z,736
2017-10-27T09:56:19.921Z,572
2017-10-27T09:57:28.606Z,816
2017-10-27T09:58:37.941Z,1364
2017-10-27T09:59:47.629Z,1812
2017-10-27T10:00:56.925Z,1784
2017-10-27T10:02:06.227Z,1284
2017-10-27T10:03:15.286Z,1060
2017-10-27T10:04:24.699Z,1000
2017-10-27T10:05:33.795Z,1204
2017-10-27T10:06:43.141Z,1644
2017-10-27T10:07:52.139Z,1124
2017-10-27T10:09:01.457Z,736
2017-10-27T10:10:10.133Z,936
2017-10-27T10:11:19.456Z,1224
2017-10-27T10:12:28.462Z,2248
2017-10-27T10:13:37.776Z,2244
2017-10-27T10:14:47.098Z,1788
2017-10-27T10:15:56.131Z,1412
2017-10-27T10:17:05.117Z,1260
2017-10-27T10:18:14.435Z,1412
2017-10-27T10:19:23.452Z,1328
2017-10-27T10:20:32.489Z,1108
2017-10-27T10:21:41.486Z,1308
2017-10-27T10:22:50.212Z,1512
2017-10-27T10:23:58.884Z,1732
2017-10-27T10:25:07.571Z,1424
2017-10-27T10:26:16.244Z,1228
2017-10-27T10:27:25.914Z,1072
2017-10-27T10:28:34.586Z,644
2017-10-27T10:29:43.577Z,480
2017-10-27T10:30:52.566Z,492
2017-10-27T10:32:01.558Z,668
2017-10-27T10:33:10.890Z,888
2017-10-27T10:34:19.563Z,1156
2017-10-27T10:35:28.617Z,1184
2017-10-27T10:36:37.285Z,1296
2017-10-27T10:37:46.280Z,1160
2017-10-27T10:38:55.644Z,1216
2017-10-27T10:40:04.638Z,1348
2017-10-27T10:41:13.637Z,1444
2017-10-27T10:42:22.992Z,1276
2017-10-27T10:43:32.012Z,1212
2017-10-27T10:44:41.020Z,1196
2017-10-27T10:45:51.009Z,1296
2017-10-27T10:47:00.684Z,1116
2017-10-27T10:48:09.364Z,1136
2017-10-27T10:49:18.376Z,1200
2017-10-27T10:50:27.719Z,1448
2017-10-27T10:51:37.031Z,2088
2017-10-27T10:52:46.379Z,2104
2017-10-27T10:53:55.393Z,1876
2017-10-27T10:55:04.444Z,1496
2017-10-27T10:56:13.461Z,992
2017-10-27T10:57:22.474Z,944
2017-10-27T10:58:31.820Z,904
2017-10-27T10:59:41.228Z,848
2017-10-27T11:00:50.530Z,844
2017-10-27T11:01:59.881Z,916
2017-10-27T11:03:08.877Z,1232
2017-10-27T11:04:17.567Z,1280
2017-10-27T11:05:26.249Z,1400
2017-10-27T11:06:35.259Z,1744
2017-10-27T11:07:44.917Z,1992
2017-10-27T11:08:53.610Z,1560
2017-10-27T11:10:02.306Z,1480
2017-10-27T11:11:11.642Z,1600
2017-10-27T11:12:20.327Z,1304
2017-10-27T11:13:28.989Z,944
2017-10-27T11:14:38.339Z,740
2017-10-27T11:15:48.026Z,660
2017-10-27T11:16:57.371Z,684
2017-10-27T11:18:07.055Z,788
2017-10-27T11:19:16.173Z,724
2017-10-27T11:20:25.504Z,708
2017-10-27T11:21:34.624Z,656
2017-10-27T11:22:43.794Z,684
2017-10-27T11:23:53.558Z,684
2017-10-27T11:25:02.918Z,656
2017-10-27T11:26:11.615Z,648
2017-10-27T11:27:20.709Z,624
2017-10-27T11:28:29.753Z,808
2017-10-27T11:29:39.648Z,1188
2017-10-27T11:30:48.992Z,1784
2017-10-27T11:31:58.682Z,1600
2017-10-27T11:33:08.033Z,1584
2017-10-27T11:34:17.054Z,1676
2017-10-27T11:35:26.720Z,1612
2017-10-27T11:36:36.054Z,1612
2017-10-27T11:37:44.765Z,1476
2017-10-27T11:38:53.763Z,1356
2017-10-27T11:40:02.462Z,1260
2017-10-27T11:41:11.774Z,1092
2017-10-27T11:42:21.455Z,1024
2017-10-27T11:43:30.123Z,1028
2017-10-27T11:44:39.776Z,1092
2017-10-27T11:45:48.439Z,952
2017-10-27T11:46:57.436Z,828
2017-10-27T11:48:06.442Z,860
2017-10-27T11:49:15.514Z,944
2017-10-27T11:50:24.240Z,996
2017-10-27T11:51:33.571Z,1288
2017-10-27T11:52:42.910Z,1280
2017-10-27T11:53:51.922Z,1368
2017-10-27T11:55:00.958Z,1404
2017-10-27T11:56:09.650Z,1428
2017-10-27T11:57:18.975Z,1212
2017-10-27T11:58:28.326Z,1120
2017-10-27T11:59:37.658Z,724
2017-10-27T12:00:46.999Z,428
2017-10-27T12:01:56.344Z,332
2017-10-27T12:03:05.321Z,304
2017-10-27T12:04:14.326Z,268
2017-10-27T12:05:23.340Z,272
2017-10-27T12:06:32.389Z,300
2017-10-27T12:07:41.092Z,344
2017-10-27T12:08:50.158Z,448
2017-10-27T12:09:59.216Z,568
2017-10-27T12:11:08.904Z,700
2017-10-27T12:12:17.924Z,676
2017-10-27T12:13:27.455Z,644
2017-10-27T12:14:36.472Z,628
2017-10-27T12:15:46.163Z,652
2017-10-27T12:16:55.177Z,620
2017-10-27T12:18:04.491Z,660
2017-10-27T12:19:13.159Z,588
2017-10-27T12:20:22.145Z,664
2017-10-27T12:21:31.809Z,780
2017-10-27T12:22:41.181Z,1116
2017-10-27T12:23:50.838Z,1260
2017-10-27T12:24:59.513Z,1352
2017-10-27T12:26:09.208Z,1336
2017-10-27T12:27:18.859Z,1288
2017-10-27T12:28:28.191Z,1080
2017-10-27T12:29:37.204Z,764
2017-10-27T12:30:46.202Z,472
2017-10-27T12:31:55.832Z,384
2017-10-27T12:33:05.784Z,356
2017-10-27T12:34:15.222Z,388
2017-10-27T12:35:24.747Z,492
2017-10-27T12:36:34.412Z,568
2017-10-27T12:37:44.449Z,648
2017-10-27T12:38:54.471Z,756
2017-10-27T12:40:03.738Z,824
2017-10-27T12:41:13.811Z,892
2017-10-27T12:42:24.114Z,936
2017-10-27T12:43:34.473Z,932
2017-10-27T12:44:43.162Z,948
2017-10-27T12:45:52.242Z,908
2017-10-27T12:47:00.984Z,824
2017-10-27T12:48:10.721Z,844
2017-10-27T12:49:20.354Z,928
2017-10-27T12:50:29.866Z,968
2017-10-27T12:51:39.635Z,904
2017-10-27T12:52:50.375Z,924
2017-10-27T12:53:59.484Z,964
2017-10-27T12:55:08.721Z,1008
2017-10-27T12:56:17.915Z,1260
2017-10-27T12:57:27.161Z,1040
2017-10-27T12:58:36.562Z,928
2017-10-27T12:59:45.693Z,800
2017-10-27T13:00:55.221Z,640
2017-10-27T13:02:04.342Z,612
2017-10-27T13:03:14.733Z,540
2017-10-27T13:04:24.473Z,532
2017-10-27T13:05:34.092Z,480
2017-10-27T13:06:43.663Z,540
2017-10-27T13:07:53.040Z,548
2017-10-27T13:09:03.055Z,548
2017-10-27T13:10:12.081Z,544
2017-10-27T13:11:21.701Z,532
2017-10-27T13:12:31.199Z,544
2017-10-27T13:13:39.865Z,504
2017-10-27T13:14:50.005Z,596
2017-10-27T13:15:59.278Z,756
2017-10-27T13:17:08.969Z,892
2017-10-27T13:18:18.555Z,1108
2017-10-27T13:19:27.746Z,1224
2017-10-27T13:20:36.900Z,1200
2017-10-27T13:21:45.571Z,880
2017-10-27T13:22:54.621Z,564
2017-10-27T13:24:03.598Z,488
2017-10-27T13:25:13.500Z,556
2017-10-27T13:26:22.924Z,548
2017-10-27T13:27:32.980Z,544
2017-10-27T13:28:42.958Z,528
2017-10-27T13:29:51.773Z,508
2017-10-27T13:31:01.994Z,512
2017-10-27T13:32:10.730Z,516
2017-10-27T13:33:19.797Z,528
2017-10-27T13:34:29.032Z,532
2017-10-27T13:35:37.867Z,548
2017-10-27T13:36:47.230Z,464
2017-10-27T13:37:56.390Z,528
2017-10-27T13:39:05.466Z,516
2017-10-27T13:40:14.935Z,516
2017-10-27T13:41:24.386Z,544
2017-10-27T13:42:33.995Z,620
2017-10-27T13:43:43.529Z,564
2017-10-27T13:44:53.825Z,496
2017-10-27T13:46:02.503Z,496
2017-10-27T13:47:12.195Z,500
2017-10-27T13:48:22.510Z,504
2017-10-27T13:49:32.038Z,572
2017-10-27T13:50:41.081Z,636
2017-10-27T13:51:50.409Z,564
2017-10-27T13:52:59.197Z,520
2017-10-27T13:54:08.575Z,496
2017-10-27T13:55:17.916Z,492
2017-10-27T13:56:27.733Z,492
2017-10-27T13:57:36.496Z,488
2017-10-27T13:58:45.595Z,480
2017-10-27T13:59:56.176Z,480
2017-10-27T14:01:05.453Z,480
2017-10-27T14:02:14.591Z,488
2017-10-27T14:03:24.245Z,476
2017-10-27T14:04:34.103Z,476
2017-10-27T14:05:43.573Z,488
2017-10-27T14:06:52.636Z,500
2017-10-27T14:08:01.969Z,524
2017-10-27T14:09:11.713Z,516
2017-10-27T14:10:20.755Z,516
2017-10-27T14:11:29.436Z,576
2017-10-27T14:12:38.849Z,644
2017-10-27T14:13:47.971Z,616
2017-10-27T14:14:57.383Z,596
2017-10-27T14:16:07.119Z,660
2017-10-27T14:17:16.623Z,732
2017-10-27T14:18:26.348Z,828
2017-10-27T14:19:36.890Z,668
2017-10-27T14:20:46.323Z,612
2017-10-27T14:21:55.609Z,540
2017-10-27T14:23:04.385Z,552
2017-10-27T14:24:13.776Z,560
2017-10-27T14:25:23.160Z,588
2017-10-27T14:26:32.860Z,588
2017-10-27T14:27:41.911Z,584
2017-10-27T14:28:50.963Z,596
2017-10-27T14:30:00.021Z,624
2017-10-27T14:31:08.749Z,708
2017-10-27T14:32:17.931Z,696
2017-10-27T14:33:26.644Z,636
2017-10-27T14:34:35.721Z,544
2017-10-27T14:35:44.462Z,520
2017-10-27T14:36:53.486Z,504
2017-10-27T14:38:02.211Z,540
2017-10-27T14:39:11.874Z,564
2017-10-27T14:40:21.191Z,600
2017-10-27T14:41:30.521Z,700
2017-10-27T14:42:39.297Z,716
2017-10-27T14:43:48.316Z,668
2017-10-27T14:44:57.667Z,600
2017-10-27T14:46:06.972Z,544
2017-10-27T14:47:16.325Z,492
2017-10-27T14:48:25.978Z,516
2017-10-27T14:49:35.382Z,500
2017-10-27T14:50:44.404Z,460
2017-10-27T14:52:25.824Z,376
2017-10-27T14:53:35.128Z,356
2017-10-27T14:54:44.120Z,372
2017-10-27T14:55:52.809Z,364
2017-10-27T14:57:02.480Z,372
2017-10-27T14:58:11.487Z,360
2017-10-27T14:59:20.199Z,332
2017-10-27T15:00:29.219Z,300
2017-10-27T15:01:38.228Z,332
2017-10-27T15:02:47.246Z,328
2017-10-27T15:03:55.937Z,312
2017-10-27T15:05:05.258Z,312
2017-10-27T15:06:14.938Z,320
2017-10-27T15:07:23.958Z,316
2017-10-27T15:08:32.631Z,296
2017-10-27T15:09:41.957Z,268
2017-10-27T15:10:51.325Z,260
2017-10-27T15:12:00.417Z,248
2017-10-27T15:13:09.450Z,236
2017-10-27T15:14:19.119Z,224
2017-10-27T15:15:28.443Z,228
2017-10-27T15:16:37.125Z,244
2017-10-27T15:17:46.146Z,244
2017-10-27T15:18:54.810Z,240
2017-10-27T15:20:03.502Z,216
2017-10-27T15:21:12.841Z,208
2017-10-27T15:22:22.513Z,204
2017-10-27T15:23:31.522Z,164
2017-10-27T15:24:40.209Z,160
2017-10-27T15:25:49.300Z,168
2017-10-27T15:26:58.615Z,180
2017-10-27T15:28:07.730Z,176
2017-10-27T15:29:16.727Z,152
2017-10-27T15:30:26.039Z,152
2017-10-27T15:31:34.720Z,164
2017-10-27T15:32:44.393Z,188
2017-10-27T15:33:53.077Z,196
2017-10-27T15:35:02.751Z,192
2017-10-27T15:36:11.826Z,180
2017-10-27T15:37:21.154Z,172
2017-10-27T15:38:30.482Z,136
2017-10-27T15:39:39.516Z,112
2017-10-27T15:40:48.640Z,92
2017-10-27T15:41:57.962Z,84
2017-10-27T15:43:07.281Z,72
2017-10-27T15:44:16.304Z,68
2017-10-27T15:45:25.293Z,68
2017-10-27T15:46:34.953Z,60
2017-10-27T15:47:44.304Z,52
2017-10-27T15:48:53.313Z,44
2017-10-27T15:50:02.319Z,44
2017-10-27T15:51:11.353Z,40
2017-10-27T15:52:20.366Z,36
2017-10-27T15:53:29.033Z,28
2017-10-27T15:54:37.722Z,24
2017-10-27T15:55:46.735Z,24
2017-10-27T15:56:56.732Z,24
2017-10-27T15:58:06.415Z,20
2017-10-27T15:59:15.426Z,16
2017-10-27T16:00:24.428Z,16
2017-10-27T16:01:33.421Z,16
2017-10-27T16:02:43.084Z,16
2017-10-27T16:03:52.404Z,12
2017-10-27T16:05:01.087Z,12
2017-10-27T16:06:09.743Z,12
2017-10-27T16:07:19.405Z,12
2017-10-27T16:08:28.406Z,12
2017-10-27T16:09:38.083Z,8
2017-10-27T16:10:47.088Z,4
2017-10-27T16:11:56.452Z,4
2017-10-27T16:13:05.112Z,4
2017-10-27T16:14:14.421Z,4